sensor_id;sensor_type;location;lat;lon;timestamp;pressure;altitude;pressure_sealevel;temperature;humidity
12213;BME280;6169;44.158;22.788;2023-02-18T00:01:16;101723.00;;;9.93;39.63
12213;BME280;6169;44.158;22.788;2023-02-18T00:06:26;101712.50;;;9.84;39.81
12213;BME280;6169;44.158;22.788;2023-02-18T00:11:31;101702.63;;;9.97;39.82
12213;BME280;6169;44.158;22.788;2023-02-18T00:16:34;101693.19;;;9.87;40.27
12213;BME280;6169;44.158;22.788;2023-02-18T00:21:38;101689.41;;;10.37;39.64
12213;BME280;6169;44.158;22.788;2023-02-18T00:26:41;101690.34;;;10.51;40.40
12213;BME280;6169;44.158;22.788;2023-02-18T00:31:43;101685.72;;;10.80;39.70
12213;BME280;6169;44.158;22.788;2023-02-18T00:36:47;101663.19;;;10.38;41.10
12213;BME280;6169;44.158;22.788;2023-02-18T00:41:49;101658.84;;;10.15;40.99
12213;BME280;6169;44.158;22.788;2023-02-18T00:46:51;101651.13;;;10.19;40.38
12213;BME280;6169;44.158;22.788;2023-02-18T00:51:55;101661.50;;;10.37;40.33
12213;BME280;6169;44.158;22.788;2023-02-18T00:56:57;101660.91;;;10.41;40.47
12213;BME280;6169;44.158;22.788;2023-02-18T01:01:59;101653.25;;;10.23;41.05
12213;BME280;6169;44.158;22.788;2023-02-18T01:07:03;101664.25;;;10.15;42.13
12213;BME280;6169;44.158;22.788;2023-02-18T01:12:05;101644.81;;;10.40;40.97
12213;BME280;6169;44.158;22.788;2023-02-18T01:17:08;101631.34;;;10.47;40.68
12213;BME280;6169;44.158;22.788;2023-02-18T01:22:12;101631.75;;;10.50;40.62
12213;BME280;6169;44.158;22.788;2023-02-18T01:27:14;101518.31;;;10.06;40.20
12213;BME280;6169;44.158;22.788;2023-02-18T01:32:16;101607.88;;;10.67;40.29
12213;BME280;6169;44.158;22.788;2023-02-18T01:37:20;101607.84;;;10.60;40.78
12213;BME280;6169;44.158;22.788;2023-02-18T01:42:25;101602.34;;;10.88;39.93
12213;BME280;6169;44.158;22.788;2023-02-18T01:47:28;101611.41;;;10.67;39.75
12213;BME280;6169;44.158;22.788;2023-02-18T01:52:31;101604.63;;;10.43;40.93
12213;BME280;6169;44.158;22.788;2023-02-18T01:57:36;101605.72;;;10.56;40.53
12213;BME280;6169;44.158;22.788;2023-02-18T02:02:42;101607.94;;;10.87;39.09
12213;BME280;6169;44.158;22.788;2023-02-18T02:07:50;101608.03;;;10.52;38.95
12213;BME280;6169;44.158;22.788;2023-02-18T02:13:00;101608.09;;;10.72;38.73
12213;BME280;6169;44.158;22.788;2023-02-18T02:18:20;101612.19;;;11.16;38.49
12213;BME280;6169;44.158;22.788;2023-02-18T02:34:48;101594.91;;;11.30;37.34
12213;BME280;6169;44.158;22.788;2023-02-18T02:40:00;101590.94;;;11.33;36.83
12213;BME280;6169;44.158;22.788;2023-02-18T02:45:10;101590.09;;;11.32;37.08
12213;BME280;6169;44.158;22.788;2023-02-18T02:50:23;101590.34;;;11.51;36.44
12213;BME280;6169;44.158;22.788;2023-02-18T02:55:29;101598.69;;;11.49;36.74
12213;BME280;6169;44.158;22.788;2023-02-18T03:00:38;101584.28;;;11.55;37.23
12213;BME280;6169;44.158;22.788;2023-02-18T03:06:00;101582.88;;;11.53;37.21
12213;BME280;6169;44.158;22.788;2023-02-18T03:11:08;101565.31;;;11.75;36.85
12213;BME280;6169;44.158;22.788;2023-02-18T03:16:16;101569.91;;;11.82;36.47
12213;BME280;6169;44.158;22.788;2023-02-18T03:21:26;101555.25;;;11.96;36.04
12213;BME280;6169;44.158;22.788;2023-02-18T03:26:32;101567.38;;;11.93;36.16
12213;BME280;6169;44.158;22.788;2023-02-18T03:31:38;101544.97;;;12.18;35.53
12213;BME280;6169;44.158;22.788;2023-02-18T03:36:43;101529.00;;;12.35;34.42
12213;BME280;6169;44.158;22.788;2023-02-18T03:41:45;101554.63;;;12.59;33.94
12213;BME280;6169;44.158;22.788;2023-02-18T03:46:48;101564.22;;;12.75;33.63
12213;BME280;6169;44.158;22.788;2023-02-18T03:51:51;101553.31;;;12.75;33.78
12213;BME280;6169;44.158;22.788;2023-02-18T03:56:54;101540.38;;;12.70;34.05
12213;BME280;6169;44.158;22.788;2023-02-18T04:01:56;101546.91;;;12.56;33.65
12213;BME280;6169;44.158;22.788;2023-02-18T04:06:59;101565.22;;;12.80;33.23
12213;BME280;6169;44.158;22.788;2023-02-18T04:12:02;101562.00;;;12.97;33.79
12213;BME280;6169;44.158;22.788;2023-02-18T04:17:04;101562.50;;;12.74;33.56
12213;BME280;6169;44.158;22.788;2023-02-18T04:22:08;101554.16;;;13.13;33.05
12213;BME280;6169;44.158;22.788;2023-02-18T04:27:10;101549.88;;;12.93;33.45
12213;BME280;6169;44.158;22.788;2023-02-18T04:32:12;101539.06;;;12.79;33.86
12213;BME280;6169;44.158;22.788;2023-02-18T04:37:16;101535.47;;;12.40;34.86
12213;BME280;6169;44.158;22.788;2023-02-18T04:42:18;101525.75;;;12.58;34.54
12213;BME280;6169;44.158;22.788;2023-02-18T04:47:20;101530.13;;;12.20;34.92
12213;BME280;6169;44.158;22.788;2023-02-18T04:52:24;101532.19;;;12.12;35.36
12213;BME280;6169;44.158;22.788;2023-02-18T04:57:26;101536.44;;;12.01;35.47
12213;BME280;6169;44.158;22.788;2023-02-18T05:02:28;101532.47;;;12.04;34.38
12213;BME280;6169;44.158;22.788;2023-02-18T05:07:33;101533.88;;;12.06;34.03
12213;BME280;6169;44.158;22.788;2023-02-18T05:12:35;101540.59;;;12.10;34.83
12213;BME280;6169;44.158;22.788;2023-02-18T05:17:37;101539.78;;;11.96;34.18
12213;BME280;6169;44.158;22.788;2023-02-18T05:22:41;101525.34;;;12.09;34.48
12213;BME280;6169;44.158;22.788;2023-02-18T05:27:43;101530.94;;;12.21;33.80
12213;BME280;6169;44.158;22.788;2023-02-18T05:32:46;101531.59;;;12.10;35.14
12213;BME280;6169;44.158;22.788;2023-02-18T05:37:49;101522.19;;;12.12;35.14
12213;BME280;6169;44.158;22.788;2023-02-18T05:42:52;101532.16;;;12.25;34.00
12213;BME280;6169;44.158;22.788;2023-02-18T05:47:54;101531.34;;;12.24;34.04
12213;BME280;6169;44.158;22.788;2023-02-18T05:52:58;101534.53;;;12.15;34.44
12213;BME280;6169;44.158;22.788;2023-02-18T05:58:00;101526.56;;;12.13;34.71
12213;BME280;6169;44.158;22.788;2023-02-18T06:03:02;101536.81;;;12.18;34.76
12213;BME280;6169;44.158;22.788;2023-02-18T06:08:06;101530.06;;;12.27;34.56
12213;BME280;6169;44.158;22.788;2023-02-18T06:13:08;101530.34;;;12.64;34.45
12213;BME280;6169;44.158;22.788;2023-02-18T06:18:10;101539.94;;;12.66;34.55
12213;BME280;6169;44.158;22.788;2023-02-18T06:23:15;101530.50;;;12.76;34.76
12213;BME280;6169;44.158;22.788;2023-02-18T06:28:17;101542.09;;;12.96;34.83
12213;BME280;6169;44.158;22.788;2023-02-18T06:33:19;101540.75;;;13.12;34.77
12213;BME280;6169;44.158;22.788;2023-02-18T06:38:23;101525.13;;;13.01;34.52
12213;BME280;6169;44.158;22.788;2023-02-18T06:43:25;101546.13;;;13.19;34.23
12213;BME280;6169;44.158;22.788;2023-02-18T06:48:28;101556.22;;;13.93;33.17
12213;BME280;6169;44.158;22.788;2023-02-18T06:53:32;101561.75;;;13.87;33.76
12213;BME280;6169;44.158;22.788;2023-02-18T06:58:34;101562.03;;;13.78;33.72
12213;BME280;6169;44.158;22.788;2023-02-18T07:03:36;101559.94;;;13.99;33.35
12213;BME280;6169;44.158;22.788;2023-02-18T07:08:40;101564.03;;;14.08;33.08
12213;BME280;6169;44.158;22.788;2023-02-18T07:13:42;101577.13;;;14.36;32.45
12213;BME280;6169;44.158;22.788;2023-02-18T07:18:45;101585.28;;;13.99;33.03
12213;BME280;6169;44.158;22.788;2023-02-18T07:23:49;101588.88;;;14.18;33.19
12213;BME280;6169;44.158;22.788;2023-02-18T07:28:51;101591.53;;;14.25;32.79
12213;BME280;6169;44.158;22.788;2023-02-18T07:33:53;101586.66;;;14.45;33.06
12213;BME280;6169;44.158;22.788;2023-02-18T07:38:57;101597.50;;;14.52;32.60
12213;BME280;6169;44.158;22.788;2023-02-18T07:43:59;101613.97;;;14.82;32.42
12213;BME280;6169;44.158;22.788;2023-02-18T07:49:01;101603.25;;;14.99;32.43
12213;BME280;6169;44.158;22.788;2023-02-18T07:54:05;101615.06;;;14.93;32.72
12213;BME280;6169;44.158;22.788;2023-02-18T07:59:07;101602.56;;;15.15;32.82
12213;BME280;6169;44.158;22.788;2023-02-18T08:04:10;101594.63;;;15.14;33.08
12213;BME280;6169;44.158;22.788;2023-02-18T08:09:14;101598.09;;;14.91;33.16
12213;BME280;6169;44.158;22.788;2023-02-18T08:14:17;101582.56;;;15.33;32.35
12213;BME280;6169;44.158;22.788;2023-02-18T08:19:19;101589.03;;;15.51;32.28
12213;BME280;6169;44.158;22.788;2023-02-18T08:24:23;101580.34;;;15.66;31.79
12213;BME280;6169;44.158;22.788;2023-02-18T08:29:25;101586.09;;;16.11;30.05
12213;BME280;6169;44.158;22.788;2023-02-18T08:34:27;101581.19;;;16.48;28.95
12213;BME280;6169;44.158;22.788;2023-02-18T08:39:34;101582.34;;;16.93;28.16
12213;BME280;6169;44.158;22.788;2023-02-18T08:44:38;101574.34;;;17.20;28.33
12213;BME280;6169;44.158;22.788;2023-02-18T08:49:40;101579.28;;;17.52;27.46
12213;BME280;6169;44.158;22.788;2023-02-18T08:54:44;101577.63;;;17.51;27.73
12213;BME280;6169;44.158;22.788;2023-02-18T08:59:46;101579.41;;;17.57;27.71
12213;BME280;6169;44.158;22.788;2023-02-18T09:04:48;101579.19;;;17.47;27.56
12213;BME280;6169;44.158;22.788;2023-02-18T09:09:52;101587.88;;;17.89;27.27
12213;BME280;6169;44.158;22.788;2023-02-18T09:14:55;101585.13;;;17.72;27.02
12213;BME280;6169;44.158;22.788;2023-02-18T09:19:57;101590.09;;;17.42;27.21
12213;BME280;6169;44.158;22.788;2023-02-18T09:25:02;101567.22;;;17.19;27.68
12213;BME280;6169;44.158;22.788;2023-02-18T09:30:05;101598.34;;;17.75;27.72
12213;BME280;6169;44.158;22.788;2023-02-18T09:35:08;101599.97;;;17.93;27.50
12213;BME280;6169;44.158;22.788;2023-02-18T09:40:23;101590.88;;;17.71;27.92
12213;BME280;6169;44.158;22.788;2023-02-18T09:45:27;101589.94;;;17.82;27.90
12213;BME280;6169;44.158;22.788;2023-02-18T09:50:32;101586.56;;;18.14;27.51
12213;BME280;6169;44.158;22.788;2023-02-18T09:55:38;101603.13;;;18.02;27.20
12213;BME280;6169;44.158;22.788;2023-02-18T10:00:42;101601.16;;;17.64;27.05
12213;BME280;6169;44.158;22.788;2023-02-18T10:05:54;101610.28;;;17.86;27.21
12213;BME280;6169;44.158;22.788;2023-02-18T10:10:58;101593.06;;;18.08;26.91
12213;BME280;6169;44.158;22.788;2023-02-18T10:16:01;101579.06;;;18.48;27.13
12213;BME280;6169;44.158;22.788;2023-02-18T10:21:06;101571.16;;;18.30;26.99
12213;BME280;6169;44.158;22.788;2023-02-18T10:26:15;101566.75;;;18.73;26.73
12213;BME280;6169;44.158;22.788;2023-02-18T10:31:24;101564.06;;;18.78;26.73
12213;BME280;6169;44.158;22.788;2023-02-18T10:38:32;101552.22;;;16.50;26.60
12213;BME280;6169;44.158;22.788;2023-02-18T10:43:44;101551.31;;;16.44;27.00
12213;BME280;6169;44.158;22.788;2023-02-18T10:49:08;101544.50;;;16.47;27.25
12213;BME280;6169;44.158;22.788;2023-02-18T10:54:16;101533.47;;;16.91;26.87
12213;BME280;6169;44.158;22.788;2023-02-18T10:59:20;101532.41;;;16.70;27.00
12213;BME280;6169;44.158;22.788;2023-02-18T11:04:26;101540.72;;;17.02;27.08
12213;BME280;6169;44.158;22.788;2023-02-18T11:09:37;101535.63;;;17.16;27.15
12213;BME280;6169;44.158;22.788;2023-02-18T11:14:42;101526.31;;;16.68;27.29
12213;BME280;6169;44.158;22.788;2023-02-18T11:19:52;101467.06;;;16.23;27.57
12213;BME280;6169;44.158;22.788;2023-02-18T11:24:58;101498.59;;;16.20;28.69
12213;BME280;6169;44.158;22.788;2023-02-18T11:30:03;101504.94;;;16.43;28.17
12213;BME280;6169;44.158;22.788;2023-02-18T11:35:05;101491.00;;;16.49;28.16
12213;BME280;6169;44.158;22.788;2023-02-18T11:40:20;101503.56;;;16.45;28.93
12213;BME280;6169;44.158;22.788;2023-02-18T11:45:28;101510.25;;;16.33;28.91
12213;BME280;6169;44.158;22.788;2023-02-18T11:50:32;101502.03;;;16.11;28.80
12213;BME280;6169;44.158;22.788;2023-02-18T11:55:36;101494.38;;;15.91;29.19
12213;BME280;6169;44.158;22.788;2023-02-18T12:00:41;101485.81;;;16.31;29.12
12213;BME280;6169;44.158;22.788;2023-02-18T12:05:44;101492.34;;;16.25;28.95
12213;BME280;6169;44.158;22.788;2023-02-18T12:10:50;101476.31;;;16.17;29.28
12213;BME280;6169;44.158;22.788;2023-02-18T12:16:00;101485.72;;;15.99;29.24
12213;BME280;6169;44.158;22.788;2023-02-18T12:21:17;101476.81;;;15.92;29.60
12213;BME280;6169;44.158;22.788;2023-02-18T12:26:27;101481.88;;;15.78;29.65
12213;BME280;6169;44.158;22.788;2023-02-18T12:31:56;101468.63;;;15.53;29.82
12213;BME280;6169;44.158;22.788;2023-02-18T12:37:13;101467.31;;;16.65;29.22
12213;BME280;6169;44.158;22.788;2023-02-18T12:42:38;101448.13;;;16.43;29.68
12213;BME280;6169;44.158;22.788;2023-02-18T12:48:02;101464.47;;;16.87;29.48
12213;BME280;6169;44.158;22.788;2023-02-18T12:53:33;101455.97;;;16.89;29.03
12213;BME280;6169;44.158;22.788;2023-02-18T12:58:47;101463.44;;;17.68;28.67
12213;BME280;6169;44.158;22.788;2023-02-18T13:04:18;101469.25;;;17.72;28.35
12213;BME280;6169;44.158;22.788;2023-02-18T13:09:29;101453.59;;;17.77;28.55
12213;BME280;6169;44.158;22.788;2023-02-18T13:14:41;101458.03;;;17.36;28.47
12213;BME280;6169;44.158;22.788;2023-02-18T13:19:49;101450.09;;;17.87;28.83
12213;BME280;6169;44.158;22.788;2023-02-18T13:24:55;101449.78;;;17.36;29.67
12213;BME280;6169;44.158;22.788;2023-02-18T13:30:12;101452.75;;;16.97;30.13
12213;BME280;6169;44.158;22.788;2023-02-18T13:35:22;101446.88;;;16.83;30.80
12213;BME280;6169;44.158;22.788;2023-02-18T13:40:27;101443.97;;;16.68;31.47
12213;BME280;6169;44.158;22.788;2023-02-18T13:45:32;101432.84;;;17.17;30.89
12213;BME280;6169;44.158;22.788;2023-02-18T13:50:42;101434.84;;;17.22;31.43
12213;BME280;6169;44.158;22.788;2023-02-18T13:55:50;101429.53;;;17.15;31.69
12213;BME280;6169;44.158;22.788;2023-02-18T14:01:00;101445.09;;;16.99;32.21
12213;BME280;6169;44.158;22.788;2023-02-18T14:06:18;101436.47;;;16.58;32.70
12213;BME280;6169;44.158;22.788;2023-02-18T14:11:49;101431.41;;;17.09;32.17
12213;BME280;6169;44.158;22.788;2023-02-18T14:17:29;101427.00;;;16.44;33.02
12213;BME280;6169;44.158;22.788;2023-02-18T14:22:42;101420.31;;;16.94;32.81
12213;BME280;6169;44.158;22.788;2023-02-18T14:27:45;101421.88;;;16.80;33.01
12213;BME280;6169;44.158;22.788;2023-02-18T14:32:50;101417.78;;;16.87;32.62
12213;BME280;6169;44.158;22.788;2023-02-18T14:38:14;101399.06;;;17.16;32.50
12213;BME280;6169;44.158;22.788;2023-02-18T14:43:35;101394.25;;;16.64;33.54
12213;BME280;6169;44.158;22.788;2023-02-18T14:54:09;101381.97;;;17.09;32.53
12213;BME280;6169;44.158;22.788;2023-02-18T14:59:13;101372.78;;;16.88;32.83
12213;BME280;6169;44.158;22.788;2023-02-18T15:04:17;101365.50;;;17.09;32.89
12213;BME280;6169;44.158;22.788;2023-02-18T15:09:21;101357.81;;;17.11;32.90
12213;BME280;6169;44.158;22.788;2023-02-18T15:14:27;101367.16;;;16.73;33.46
12213;BME280;6169;44.158;22.788;2023-02-18T15:19:37;101359.50;;;16.48;33.57
12213;BME280;6169;44.158;22.788;2023-02-18T15:24:40;101352.56;;;16.13;34.00
12213;BME280;6169;44.158;22.788;2023-02-18T15:29:42;101343.81;;;16.16;34.60
12213;BME280;6169;44.158;22.788;2023-02-18T15:34:49;101306.44;;;15.56;35.17
12213;BME280;6169;44.158;22.788;2023-02-18T15:39:51;101338.88;;;15.64;35.69
12213;BME280;6169;44.158;22.788;2023-02-18T15:44:57;101336.84;;;15.37;36.09
12213;BME280;6169;44.158;22.788;2023-02-18T15:50:02;101337.19;;;15.63;35.98
12213;BME280;6169;44.158;22.788;2023-02-18T15:55:10;101338.03;;;15.64;36.03
12213;BME280;6169;44.158;22.788;2023-02-18T16:00:18;101325.69;;;15.61;36.11
12213;BME280;6169;44.158;22.788;2023-02-18T16:05:25;101312.47;;;15.36;36.52
12213;BME280;6169;44.158;22.788;2023-02-18T16:10:52;101310.47;;;14.92;37.37
12213;BME280;6169;44.158;22.788;2023-02-18T16:15:56;101312.97;;;14.94;37.46
12213;BME280;6169;44.158;22.788;2023-02-18T16:21:03;101300.38;;;14.76;37.73
12213;BME280;6169;44.158;22.788;2023-02-18T16:26:21;101310.75;;;14.74;37.67
12213;BME280;6169;44.158;22.788;2023-02-18T16:31:24;101312.22;;;14.48;39.30
12213;BME280;6169;44.158;22.788;2023-02-18T16:36:28;101320.06;;;13.70;40.71
12213;BME280;6169;44.158;22.788;2023-02-18T16:41:30;101323.94;;;13.98;40.11
12213;BME280;6169;44.158;22.788;2023-02-18T16:46:32;101328.94;;;13.89;40.06
12213;BME280;6169;44.158;22.788;2023-02-18T16:51:36;101316.81;;;14.14;39.04
12213;BME280;6169;44.158;22.788;2023-02-18T16:56:39;101317.84;;;14.41;38.31
12213;BME280;6169;44.158;22.788;2023-02-18T17:01:43;101315.94;;;14.25;38.21
12213;BME280;6169;44.158;22.788;2023-02-18T17:06:48;101311.13;;;14.15;38.59
12213;BME280;6169;44.158;22.788;2023-02-18T17:11:52;101317.50;;;13.52;39.91
12213;BME280;6169;44.158;22.788;2023-02-18T17:16:55;101304.13;;;13.27;40.51
12213;BME280;6169;44.158;22.788;2023-02-18T17:22:00;101309.88;;;13.66;39.99
12213;BME280;6169;44.158;22.788;2023-02-18T17:27:03;101319.06;;;13.88;39.26
12213;BME280;6169;44.158;22.788;2023-02-18T17:32:07;101292.59;;;13.48;39.83
12213;BME280;6169;44.158;22.788;2023-02-18T17:37:12;101287.25;;;13.82;38.68
12213;BME280;6169;44.158;22.788;2023-02-18T17:42:14;101292.66;;;13.94;38.36
12213;BME280;6169;44.158;22.788;2023-02-18T17:47:17;101302.41;;;14.18;37.83
12213;BME280;6169;44.158;22.788;2023-02-18T17:52:28;101303.16;;;14.14;37.75
12213;BME280;6169;44.158;22.788;2023-02-18T17:57:32;101176.34;;;13.41;37.77
12213;BME280;6169;44.158;22.788;2023-02-18T18:02:34;101299.41;;;13.74;38.69
12213;BME280;6169;44.158;22.788;2023-02-18T18:07:38;101294.69;;;13.58;38.88
12213;BME280;6169;44.158;22.788;2023-02-18T18:12:41;101281.56;;;14.00;38.21
12213;BME280;6169;44.158;22.788;2023-02-18T18:17:44;101287.97;;;13.37;39.35
12213;BME280;6169;44.158;22.788;2023-02-18T18:22:53;101280.47;;;12.92;40.29
12213;BME280;6169;44.158;22.788;2023-02-18T18:27:56;101274.50;;;12.72;40.70
12213;BME280;6169;44.158;22.788;2023-02-18T18:32:59;101265.13;;;12.56;40.65
12213;BME280;6169;44.158;22.788;2023-02-18T18:38:03;101272.34;;;12.74;40.27
12213;BME280;6169;44.158;22.788;2023-02-18T18:43:05;101274.78;;;12.94;39.86
12213;BME280;6169;44.158;22.788;2023-02-18T18:48:08;101267.50;;;12.64;40.48
12213;BME280;6169;44.158;22.788;2023-02-18T18:53:17;101259.38;;;12.10;41.63
12213;BME280;6169;44.158;22.788;2023-02-18T18:58:20;101254.94;;;11.97;42.11
12213;BME280;6169;44.158;22.788;2023-02-18T19:03:25;101245.88;;;12.15;41.75
12213;BME280;6169;44.158;22.788;2023-02-18T19:08:31;101248.44;;;11.98;41.67
12213;BME280;6169;44.158;22.788;2023-02-18T19:13:34;101249.91;;;12.24;40.66
12213;BME280;6169;44.158;22.788;2023-02-18T19:18:38;101247.78;;;12.15;40.68
12213;BME280;6169;44.158;22.788;2023-02-18T19:23:42;101245.41;;;12.18;40.53
12213;BME280;6169;44.158;22.788;2023-02-18T19:28:45;101246.72;;;12.28;39.96
12213;BME280;6169;44.158;22.788;2023-02-18T19:33:48;101254.31;;;11.84;41.07
12213;BME280;6169;44.158;22.788;2023-02-18T19:38:52;101242.72;;;11.88;40.96
12213;BME280;6169;44.158;22.788;2023-02-18T19:43:55;101229.16;;;11.70;40.91
12213;BME280;6169;44.158;22.788;2023-02-18T19:48:58;101246.13;;;11.84;40.73
12213;BME280;6169;44.158;22.788;2023-02-18T19:54:04;101237.53;;;11.68;40.35
12213;BME280;6169;44.158;22.788;2023-02-18T19:59:08;101215.59;;;11.63;40.40
12213;BME280;6169;44.158;22.788;2023-02-18T20:04:11;101233.50;;;11.41;40.91
12213;BME280;6169;44.158;22.788;2023-02-18T20:09:16;101231.44;;;11.06;41.61
12213;BME280;6169;44.158;22.788;2023-02-18T20:14:18;101199.53;;;10.51;42.15
12213;BME280;6169;44.158;22.788;2023-02-18T20:19:23;101214.72;;;10.84;42.19
12213;BME280;6169;44.158;22.788;2023-02-18T20:24:33;101191.63;;;10.50;42.32
12213;BME280;6169;44.158;22.788;2023-02-18T20:29:35;101203.56;;;10.67;42.21
12213;BME280;6169;44.158;22.788;2023-02-18T20:34:38;101203.22;;;10.82;41.47
12213;BME280;6169;44.158;22.788;2023-02-18T20:39:42;101193.88;;;10.96;41.30
12213;BME280;6169;44.158;22.788;2023-02-18T20:44:45;101187.09;;;11.35;39.86
12213;BME280;6169;44.158;22.788;2023-02-18T20:49:48;101206.59;;;11.02;40.82
12213;BME280;6169;44.158;22.788;2023-02-18T20:54:52;101200.69;;;11.35;39.66
12213;BME280;6169;44.158;22.788;2023-02-18T20:59:54;101200.81;;;11.59;39.55
12213;BME280;6169;44.158;22.788;2023-02-18T21:04:57;101185.31;;;11.41;39.67
12213;BME280;6169;44.158;22.788;2023-02-18T21:10:02;101181.44;;;11.19;40.54
12213;BME280;6169;44.158;22.788;2023-02-18T21:15:07;101172.84;;;11.64;39.54
12213;BME280;6169;44.158;22.788;2023-02-18T21:20:09;101169.44;;;11.68;39.55
12213;BME280;6169;44.158;22.788;2023-02-18T21:25:13;101159.97;;;11.71;39.78
12213;BME280;6169;44.158;22.788;2023-02-18T21:30:15;101159.81;;;11.84;39.63
12213;BME280;6169;44.158;22.788;2023-02-18T21:35:18;101156.13;;;11.78;39.44
12213;BME280;6169;44.158;22.788;2023-02-18T21:40:21;101151.75;;;11.89;38.87
12213;BME280;6169;44.158;22.788;2023-02-18T21:45:24;101152.00;;;11.88;38.96
12213;BME280;6169;44.158;22.788;2023-02-18T21:50:27;101138.84;;;11.85;38.80
12213;BME280;6169;44.158;22.788;2023-02-18T21:55:30;101141.06;;;11.76;39.32
12213;BME280;6169;44.158;22.788;2023-02-18T22:00:33;101139.28;;;11.70;39.55
12213;BME280;6169;44.158;22.788;2023-02-18T22:05:38;101145.13;;;11.55;40.25
12213;BME280;6169;44.158;22.788;2023-02-18T22:10:42;101142.44;;;11.67;39.61
12213;BME280;6169;44.158;22.788;2023-02-18T22:15:44;101143.22;;;11.97;39.31
12213;BME280;6169;44.158;22.788;2023-02-18T22:20:54;101149.97;;;11.95;39.12
12213;BME280;6169;44.158;22.788;2023-02-18T22:26:01;101171.91;;;12.00;39.00
12213;BME280;6169;44.158;22.788;2023-02-18T22:31:07;101158.75;;;11.55;40.00
12213;BME280;6169;44.158;22.788;2023-02-18T22:36:09;101174.38;;;11.48;40.14
12213;BME280;6169;44.158;22.788;2023-02-18T22:41:16;101178.00;;;10.75;41.68
12213;BME280;6169;44.158;22.788;2023-02-18T22:46:19;101189.47;;;10.77;41.40
12213;BME280;6169;44.158;22.788;2023-02-18T22:51:22;101181.47;;;11.49;39.69
12213;BME280;6169;44.158;22.788;2023-02-18T22:56:28;101179.69;;;11.54;39.89
12213;BME280;6169;44.158;22.788;2023-02-18T23:01:31;101181.50;;;11.91;38.59
12213;BME280;6169;44.158;22.788;2023-02-18T23:06:35;101174.53;;;12.07;38.32
12213;BME280;6169;44.158;22.788;2023-02-18T23:11:38;101123.69;;;11.89;37.68
12213;BME280;6169;44.158;22.788;2023-02-18T23:16:41;101172.63;;;12.19;37.72
12213;BME280;6169;44.158;22.788;2023-02-18T23:22:00;101180.00;;;12.07;37.63
12213;BME280;6169;44.158;22.788;2023-02-18T23:27:05;101184.25;;;12.14;37.75
12213;BME280;6169;44.158;22.788;2023-02-18T23:32:08;101183.31;;;12.44;36.93
12213;BME280;6169;44.158;22.788;2023-02-18T23:37:10;101186.75;;;12.28;36.89
12213;BME280;6169;44.158;22.788;2023-02-18T23:42:14;101172.03;;;12.29;36.92
12213;BME280;6169;44.158;22.788;2023-02-18T23:47:16;101185.66;;;12.29;36.94
12213;BME280;6169;44.158;22.788;2023-02-18T23:52:19;101189.88;;;11.89;37.44
12213;BME280;6169;44.158;22.788;2023-02-18T23:57:23;101202.47;;;11.60;38.02
